Terminal Aerodrome Forecast
Issued by NWS

Home | Current Version | Previous Version | Text Only | Print | Product List | Glossary On
Versions: 1 2 3 4 5 6 7 8 9 10 11 12 13 14 15 16 17
000
FTUS44 KEPZ 231700
TAFDMN
TAF
KDMN 231720Z 2318/2418 06007KT P6SM SCT015 BKN040
     FM232100 13008KT P6SM VCTS FEW030 SCT035CB SCT100
     FM240300 08008KT P6SM SCT050 SCT100 SCT200
     FM240600 08005KT P6SM FEW080 FEW120
     FM241000 VRB03KT 5SM BR FEW120=

USA.gov is the U.S. government's official web portal to all federal, state and local government web resources and services.